Time;durP1;ratioP1;P1;durP2;ratioP2;P2;SDS_P1;SDS_P2;PMS_P1;PMS_P2;Temp;Humidity;BMP_temperature;BMP_pressure;BME280_temperature;BME280_humidity;BME280_pressure;Samples;Min_cycle;Max_cycle;Signal;HPM_P1;HPM_P2
2021/09/26 00:00:23;;;;;;;11.38;7.10;;;15.80;88.90;;;;;;5084344;28;20159;-87
2021/09/26 00:02:49;;;;;;;13.30;7.43;;;15.90;88.80;;;;;;5083753;28;20180;-87
2021/09/26 00:05:15;;;;;;;7.75;6.70;;;15.80;88.70;;;;;;5084182;28;20192;-87
2021/09/26 00:07:41;;;;;;;8.90;6.68;;;15.70;88.60;;;;;;5084028;28;20282;-87
2021/09/26 00:10:08;;;;;;;8.50;6.95;;;15.60;88.70;;;;;;5083391;28;20267;-87
2021/09/26 00:12:35;;;;;;;11.27;6.85;;;15.50;88.90;;;;;;5084398;28;20266;-87
2021/09/26 00:15:02;;;;;;;8.45;6.78;;;15.50;89.00;;;;;;5084094;28;20258;-87
2021/09/26 00:17:27;;;;;;;10.88;7.30;;;15.40;89.00;;;;;;5083270;28;20176;-87
2021/09/26 00:19:53;;;;;;;9.85;7.22;;;15.30;89.00;;;;;;5083444;28;20182;-87
2021/09/26 00:22:19;;;;;;;13.95;6.97;;;15.30;89.10;;;;;;5084031;28;20214;-87
2021/09/26 00:24:45;;;;;;;8.65;6.60;;;15.30;89.10;;;;;;5083832;28;20245;-87
2021/09/26 00:27:12;;;;;;;10.43;6.75;;;15.30;89.00;;;;;;5084470;28;20235;-86
2021/09/26 00:29:38;;;;;;;11.32;7.43;;;15.30;89.10;;;;;;5084557;28;20250;-86
2021/09/26 00:32:05;;;;;;;8.02;7.15;;;15.30;88.90;;;;;;5084498;28;20171;-87
2021/09/26 00:34:31;;;;;;;10.90;6.68;;;15.20;88.90;;;;;;5089410;28;20185;-86
2021/09/26 00:36:57;;;;;;;10.32;6.63;;;15.20;89.00;;;;;;5088706;28;20219;-87
2021/09/26 00:39:23;;;;;;;6.47;5.78;;;15.20;89.00;;;;;;5087551;28;20191;-87
2021/09/26 00:41:49;;;;;;;8.00;6.30;;;15.20;89.20;;;;;;5087801;28;20191;-87
2021/09/26 00:44:15;;;;;;;9.30;6.28;;;15.20;89.10;;;;;;5088996;28;20199;-86
2021/09/26 00:46:41;;;;;;;15.00;6.60;;;15.10;88.90;;;;;;5088829;28;20164;-86
2021/09/26 00:49:07;;;;;;;8.38;6.07;;;15.10;88.60;;;;;;5088028;28;20193;-87
2021/09/26 00:51:33;;;;;;;11.82;6.10;;;14.90;88.90;;;;;;5087268;28;20171;-87
2021/09/26 00:53:58;;;;;;;8.43;6.22;;;15.00;89.00;;;;;;5087228;28;20228;-87
2021/09/26 00:56:25;;;;;;;8.77;6.20;;;15.00;88.90;;;;;;5086445;28;20187;-87
2021/09/26 00:58:51;;;;;;;7.00;5.32;;;15.00;88.80;;;;;;5088320;28;20207;-86
2021/09/26 01:01:17;;;;;;;7.57;6.00;;;14.90;88.80;;;;;;5087843;28;20180;-87
2021/09/26 01:03:43;;;;;;;8.02;5.90;;;14.80;88.60;;;;;;5087805;28;20252;-87
2021/09/26 01:06:51;;;;;;;12.30;6.32;;;14.90;88.70;;;;;;5088134;28;20172;-87
2021/09/26 01:09:39;;;;;;;11.88;6.47;;;14.90;89.00;;;;;;5084079;28;20225;-87
2021/09/26 01:12:33;;;;;;;10.50;6.00;;;15.00;89.10;;;;;;5087215;28;20172;-87
2021/09/26 01:15:08;;;;;;;10.15;6.68;;;15.00;88.90;;;;;;5087386;28;20171;-87
2021/09/26 01:17:37;;;;;;;7.28;5.82;;;15.10;88.80;;;;;;5089825;28;20187;-87
2021/09/26 01:20:38;;;;;;;8.88;6.35;;;15.20;88.70;;;;;;5087950;28;20180;-87
2021/09/26 01:23:04;;;;;;;14.18;5.80;;;15.20;88.80;;;;;;5088755;28;20255;-87
2021/09/26 01:26:08;;;;;;;9.32;5.72;;;15.20;89.00;;;;;;5088670;28;20199;-87
2021/09/26 01:28:42;;;;;;;16.98;6.22;;;15.20;89.00;;;;;;5087874;28;20207;-87
2021/09/26 01:31:13;;;;;;;7.30;6.05;;;15.20;89.10;;;;;;5088722;28;20205;-87
2021/09/26 01:33:46;;;;;;;8.63;5.97;;;15.10;89.40;;;;;;5087739;28;20168;-87
2021/09/26 01:36:19;;;;;;;10.40;6.30;;;15.10;89.40;;;;;;5087677;28;20178;-87
2021/09/26 01:38:52;;;;;;;8.98;6.18;;;15.10;89.40;;;;;;5086911;28;20675;-87
2021/09/26 01:41:33;;;;;;;7.15;6.40;;;15.20;89.40;;;;;;5088152;28;20155;-87
2021/09/26 01:44:01;;;;;;;9.85;6.18;;;15.20;89.40;;;;;;5087750;28;20190;-87
2021/09/26 01:46:31;;;;;;;8.48;6.30;;;15.20;89.40;;;;;;5088054;28;20171;-87
2021/09/26 01:49:05;;;;;;;9.38;6.40;;;15.20;89.40;;;;;;5088160;28;20241;-86
2021/09/26 01:51:38;;;;;;;9.77;6.22;;;15.20;89.50;;;;;;5090316;28;20159;-86
2021/09/26 01:54:08;;;;;;;6.72;5.63;;;15.20;89.60;;;;;;5088238;28;20674;-86
2021/09/26 01:56:35;;;;;;;6.32;5.72;;;15.20;89.50;;;;;;5088081;28;20179;-86
2021/09/26 01:59:01;;;;;;;5.70;5.00;;;15.30;89.50;;;;;;5088221;28;20211;-86
2021/09/26 02:01:27;;;;;;;10.18;6.38;;;15.30;89.40;;;;;;5086802;28;20187;-87
2021/09/26 02:03:55;;;;;;;7.05;5.72;;;15.30;89.60;;;;;;5087836;28;20199;-86
2021/09/26 02:06:22;;;;;;;8.35;5.63;;;15.30;89.60;;;;;;5087804;28;20171;-86
2021/09/26 02:08:48;;;;;;;8.63;6.20;;;15.30;89.80;;;;;;5088047;28;20191;-86
2021/09/26 02:11:15;;;;;;;8.55;6.35;;;15.30;90.00;;;;;;5087007;28;20194;-86
2021/09/26 02:13:42;;;;;;;6.95;6.25;;;15.30;90.20;;;;;;5085782;28;20175;-86
2021/09/26 02:16:09;;;;;;;7.10;5.63;;;15.30;90.30;;;;;;5085805;28;20171;-86
2021/09/26 02:18:37;;;;;;;7.35;5.72;;;15.30;90.40;;;;;;5087280;28;20274;-86
2021/09/26 02:21:04;;;;;;;7.22;5.75;;;15.30;90.30;;;;;;5086386;28;20171;-87
2021/09/26 02:23:32;;;;;;;11.52;5.78;;;15.30;90.30;;;;;;5086448;28;20265;-87
2021/09/26 02:25:58;;;;;;;8.02;5.13;;;15.30;90.10;;;;;;5085941;28;20179;-87
2021/09/26 02:28:24;;;;;;;5.70;5.00;;;15.30;90.10;;;;;;5085945;28;20191;-86
2021/09/26 02:30:50;;;;;;;11.32;5.38;;;15.30;90.10;;;;;;5085765;28;20198;-87
2021/09/26 02:33:16;;;;;;;7.57;5.60;;;15.30;90.10;;;;;;5086173;28;20173;-87
2021/09/26 02:35:42;;;;;;;8.18;5.70;;;15.40;90.20;;;;;;5085785;28;20182;-86
2021/09/26 02:38:07;;;;;;;6.00;5.20;;;15.40;90.20;;;;;;5087684;28;20191;-87
2021/09/26 02:40:34;;;;;;;6.35;5.40;;;15.40;90.10;;;;;;5085200;28;20179;-87
2021/09/26 02:43:26;;;;;;;6.57;5.72;;;15.40;90.10;;;;;;5085770;28;20179;-87
2021/09/26 02:46:04;;;;;;;8.77;5.30;;;15.40;90.10;;;;;;5085715;28;20184;-87
2021/09/26 02:48:31;;;;;;;8.23;5.38;;;15.50;90.10;;;;;;5085976;28;20191;-87
2021/09/26 02:50:57;;;;;;;9.95;5.38;;;15.40;90.20;;;;;;5086875;28;20652;-86
2021/09/26 02:53:26;;;;;;;8.25;5.38;;;15.40;90.20;;;;;;5087053;28;20160;-86
2021/09/26 02:55:53;;;;;;;9.95;6.28;;;15.40;90.20;;;;;;5084222;28;20236;-86
2021/09/26 02:58:19;;;;;;;8.88;6.10;;;15.40;90.20;;;;;;5085096;28;20210;-86
2021/09/26 03:00:47;;;;;;;10.73;7.93;;;15.50;90.20;;;;;;5085211;28;20239;-87
2021/09/26 03:03:19;;;;;;;10.10;7.45;;;15.50;90.20;;;;;;5086346;28;20182;-86
2021/09/26 03:05:46;;;;;;;13.32;7.97;;;15.50;90.20;;;;;;5086892;28;20245;-86
2021/09/26 03:08:13;;;;;;;8.85;7.05;;;15.50;90.10;;;;;;5085202;28;20213;-86
2021/09/26 03:10:40;;;;;;;12.38;7.45;;;15.50;90.10;;;;;;5086372;28;20197;-86
2021/09/26 03:13:06;;;;;;;14.50;6.88;;;15.60;90.00;;;;;;5085452;28;20171;-86
2021/09/26 03:15:32;;;;;;;6.90;6.20;;;15.60;90.10;;;;;;5086379;28;20172;-86
2021/09/26 03:17:58;;;;;;;8.95;5.70;;;15.60;90.10;;;;;;5086295;28;20199;-87
2021/09/26 03:20:24;;;;;;;9.23;5.28;;;15.60;89.90;;;;;;5085178;28;20205;-87
2021/09/26 03:22:50;;;;;;;10.20;4.88;;;15.60;89.70;;;;;;5085899;28;20705;-86
2021/09/26 03:25:16;;;;;;;8.93;4.60;;;15.60;89.60;;;;;;5086397;28;20630;-86
2021/09/26 03:27:43;;;;;;;5.13;4.32;;;15.60;89.50;;;;;;5084666;28;20667;-86
2021/09/26 03:30:09;;;;;;;11.27;4.90;;;15.70;89.20;;;;;;5085128;28;20185;-86
2021/09/26 03:32:35;;;;;;;7.57;4.32;;;15.70;89.10;;;;;;5085724;28;20217;-86
2021/09/26 03:35:01;;;;;;;7.47;4.45;;;15.70;89.10;;;;;;5086722;28;20168;-86
2021/09/26 03:37:27;;;;;;;8.75;4.63;;;15.70;89.10;;;;;;5086624;28;20167;-86
2021/09/26 03:39:52;;;;;;;8.35;4.78;;;15.70;89.10;;;;;;5086864;28;20197;-86
2021/09/26 03:42:18;;;;;;;8.18;4.20;;;15.70;89.20;;;;;;5084553;28;20179;-86
2021/09/26 03:44:44;;;;;;;8.27;4.50;;;15.70;89.10;;;;;;5086455;28;20195;-86
2021/09/26 03:47:10;;;;;;;6.35;4.38;;;15.70;89.00;;;;;;5086326;28;20171;-86
2021/09/26 03:49:35;;;;;;;6.63;4.30;;;15.60;89.20;;;;;;5085187;28;20225;-86
2021/09/26 03:52:02;;;;;;;9.20;4.57;;;15.60;89.20;;;;;;5085271;28;20251;-86
2021/09/26 03:54:27;;;;;;;5.78;4.40;;;15.70;89.20;;;;;;5085795;28;20175;-86
2021/09/26 03:56:53;;;;;;;7.65;4.50;;;15.70;89.10;;;;;;5085294;28;20175;-86
2021/09/26 03:59:19;;;;;;;6.40;4.18;;;15.70;89.10;;;;;;5086213;28;20245;-86
2021/09/26 04:01:46;;;;;;;8.77;4.68;;;15.70;89.20;;;;;;5087042;28;20191;-86
2021/09/26 04:04:12;;;;;;;6.03;4.30;;;15.70;89.20;;;;;;5085698;28;20206;-86
2021/09/26 04:06:38;;;;;;;6.55;4.90;;;15.70;89.30;;;;;;5088266;28;20171;-86
2021/09/26 04:09:05;;;;;;;4.90;4.38;;;15.60;89.50;;;;;;5090221;28;20191;-86
2021/09/26 04:11:32;;;;;;;8.43;5.15;;;15.60;89.60;;;;;;5088112;28;20172;-86
2021/09/26 04:13:57;;;;;;;5.75;5.05;;;15.60;89.60;;;;;;5090005;28;20172;-86
2021/09/26 04:16:23;;;;;;;5.93;4.72;;;15.60;89.70;;;;;;5089921;28;20179;-86
2021/09/26 04:18:48;;;;;;;7.10;4.63;;;15.60;89.60;;;;;;5090253;28;20199;-86
2021/09/26 04:21:19;;;;;;;10.25;5.00;;;15.60;89.70;;;;;;5087824;28;20182;-86
2021/09/26 04:23:46;;;;;;;5.70;4.60;;;15.60;89.80;;;;;;5090053;28;20163;-86
2021/09/26 04:26:12;;;;;;;8.32;5.32;;;15.60;89.70;;;;;;5090266;28;20197;-86
2021/09/26 04:28:38;;;;;;;11.35;6.00;;;15.60;89.80;;;;;;5089410;28;20191;-86
2021/09/26 04:31:04;;;;;;;7.97;5.40;;;15.60;90.00;;;;;;5089608;28;20164;-86
2021/09/26 04:33:30;;;;;;;8.43;5.70;;;15.60;90.00;;;;;;5087878;28;20242;-86
2021/09/26 04:35:55;;;;;;;7.68;5.43;;;15.70;90.10;;;;;;5088450;28;20175;-86
2021/09/26 04:38:21;;;;;;;7.63;5.13;;;15.60;90.20;;;;;;5088326;28;20191;-87
2021/09/26 04:40:47;;;;;;;8.43;5.63;;;15.60;90.30;;;;;;5089246;28;20175;-86
2021/09/26 04:43:13;;;;;;;9.43;5.22;;;15.70;90.30;;;;;;5088217;28;20175;-87
2021/09/26 04:45:39;;;;;;;12.23;5.80;;;15.60;90.40;;;;;;5087796;28;20366;-87
2021/09/26 04:48:04;;;;;;;9.88;6.55;;;15.60;90.50;;;;;;5088749;28;20183;-87
2021/09/26 04:50:31;;;;;;;9.02;5.95;;;15.60;90.50;;;;;;5089205;28;20254;-87
2021/09/26 04:52:57;;;;;;;7.97;6.28;;;15.70;90.50;;;;;;5087876;28;20199;-87
2021/09/26 04:55:26;;;;;;;13.40;6.38;;;15.70;90.50;;;;;;5087820;28;20178;-87
2021/09/26 04:57:53;;;;;;;10.00;6.88;;;15.60;90.60;;;;;;5088156;28;20255;-86
2021/09/26 05:00:20;;;;;;;11.80;6.05;;;15.70;90.70;;;;;;5088690;28;20182;-86
2021/09/26 05:02:45;;;;;;;9.13;6.97;;;15.70;90.60;;;;;;5087264;28;20288;-86
2021/09/26 05:05:11;;;;;;;13.60;6.78;;;15.70;90.60;;;;;;5087581;28;20214;-86
2021/09/26 05:07:38;;;;;;;10.18;6.80;;;15.70;90.60;;;;;;5087707;28;20195;-86
2021/09/26 05:10:05;;;;;;;11.93;6.82;;;15.80;90.70;;;;;;5089520;28;20194;-86
2021/09/26 05:12:31;;;;;;;9.75;7.28;;;15.70;90.80;;;;;;5089872;28;20164;-86
2021/09/26 05:15:01;;;;;;;9.52;7.05;;;15.80;90.90;;;;;;5088823;28;20569;-86
2021/09/26 05:17:28;;;;;;;11.85;7.07;;;15.80;90.90;;;;;;5085115;28;20174;-86
2021/09/26 05:19:54;;;;;;;10.73;7.20;;;15.80;90.80;;;;;;5084877;28;20179;-87
2021/09/26 05:22:20;;;;;;;12.68;7.55;;;15.80;90.80;;;;;;5085205;28;20179;-87
2021/09/26 05:24:46;;;;;;;10.98;8.07;;;15.80;90.80;;;;;;5087145;28;20286;-86
2021/09/26 05:27:11;;;;;;;12.13;7.95;;;15.80;90.90;;;;;;5088408;28;20171;-87
2021/09/26 05:29:38;;;;;;;12.82;8.25;;;15.80;90.90;;;;;;5087312;28;20175;-87
2021/09/26 05:32:04;;;;;;;11.13;7.82;;;15.90;91.10;;;;;;5089156;28;20171;-87
2021/09/26 05:34:30;;;;;;;11.35;8.18;;;15.80;91.00;;;;;;5088153;28;20186;-87
2021/09/26 05:36:56;;;;;;;8.93;8.05;;;15.90;91.10;;;;;;5087180;28;20209;-87
2021/09/26 05:39:25;;;;;;;14.40;9.48;;;15.80;91.00;;;;;;5086816;28;20192;-87
2021/09/26 05:41:51;;;;;;;11.30;8.20;;;15.90;91.10;;;;;;5085032;28;20183;-87
2021/09/26 05:44:18;;;;;;;10.50;8.35;;;15.90;91.10;;;;;;5085000;28;20195;-87
2021/09/26 05:46:43;;;;;;;10.52;8.98;;;15.90;91.10;;;;;;5085737;28;20210;-86
2021/09/26 05:49:09;;;;;;;16.02;9.13;;;16.00;91.10;;;;;;5086515;28;20261;-87
2021/09/26 05:51:35;;;;;;;14.20;9.48;;;15.90;91.20;;;;;;5088052;28;20275;-87
2021/09/26 05:54:01;;;;;;;14.82;9.02;;;16.00;91.20;;;;;;5087292;28;20179;-86
2021/09/26 05:56:27;;;;;;;13.02;9.70;;;16.00;91.10;;;;;;5087858;28;20164;-86
2021/09/26 05:58:52;;;;;;;15.45;10.68;;;16.00;91.10;;;;;;5087351;28;20262;-86
2021/09/26 06:01:18;;;;;;;13.23;9.90;;;16.10;91.00;;;;;;5087703;28;20209;-86
2021/09/26 06:03:44;;;;;;;15.35;10.45;;;16.00;91.10;;;;;;5086777;28;20175;-86
2021/09/26 06:06:09;;;;;;;14.73;10.95;;;16.10;91.00;;;;;;5088258;28;20606;-86
2021/09/26 06:08:35;;;;;;;16.38;11.70;;;16.10;91.00;;;;;;5087921;28;20196;-87
2021/09/26 06:11:01;;;;;;;20.67;12.77;;;16.10;91.00;;;;;;5088948;28;20183;-86
2021/09/26 06:13:27;;;;;;;18.27;13.52;;;16.10;91.00;;;;;;5086668;28;20171;-86
2021/09/26 06:15:52;;;;;;;18.48;13.88;;;16.10;91.10;;;;;;5085917;28;20176;-86
2021/09/26 06:18:18;;;;;;;16.88;13.52;;;16.20;90.90;;;;;;5086863;28;20194;-86
2021/09/26 06:20:48;;;;;;;18.63;13.32;;;16.20;90.70;;;;;;5086313;28;20168;-86
2021/09/26 06:23:14;;;;;;;20.02;13.32;;;16.20;90.70;;;;;;5086180;28;20182;-86
2021/09/26 06:25:40;;;;;;;15.02;13.38;;;16.30;90.50;;;;;;5089398;28;20241;-86
2021/09/26 06:28:06;;;;;;;17.92;12.10;;;16.30;90.50;;;;;;5085497;28;20195;-87
2021/09/26 06:30:35;;;;;;;13.15;11.07;;;16.30;90.40;;;;;;5084971;28;20175;-87
2021/09/26 06:33:00;;;;;;;17.45;12.15;;;16.50;90.40;;;;;;5086418;28;20167;-87
2021/09/26 06:35:26;;;;;;;14.82;11.18;;;16.50;90.50;;;;;;5085317;28;20182;-87
2021/09/26 06:37:54;;;;;;;15.85;11.68;;;16.50;90.40;;;;;;5084118;28;20203;-87
2021/09/26 06:40:20;;;;;;;19.35;12.88;;;16.50;90.30;;;;;;5085620;28;20178;-87
2021/09/26 06:42:45;;;;;;;14.35;12.10;;;16.50;90.40;;;;;;5085708;28;20191;-87
2021/09/26 06:45:11;;;;;;;16.67;13.32;;;16.60;90.40;;;;;;5086844;28;20191;-87
2021/09/26 06:47:37;;;;;;;17.60;12.07;;;16.70;90.30;;;;;;5084400;28;20240;-87
2021/09/26 06:50:03;;;;;;;21.88;12.52;;;16.70;90.30;;;;;;5084435;28;20517;-87
2021/09/26 06:52:29;;;;;;;14.07;11.30;;;16.70;90.30;;;;;;5082757;28;20172;-87
2021/09/26 06:54:55;;;;;;;14.63;11.68;;;16.80;90.40;;;;;;5083284;28;20654;-88
2021/09/26 06:57:21;;;;;;;18.58;11.88;;;16.80;90.40;;;;;;5083725;28;20171;-87
2021/09/26 06:59:47;;;;;;;15.70;11.70;;;16.80;90.30;;;;;;5077301;28;20195;-88
2021/09/26 07:02:17;;;;;;;18.05;12.02;;;16.90;90.20;;;;;;5075388;28;20178;-88
2021/09/26 07:04:43;;;;;;;17.27;11.77;;;17.00;90.20;;;;;;5074250;28;20655;-88
2021/09/26 07:07:09;;;;;;;14.68;11.68;;;17.10;90.20;;;;;;5075720;28;20178;-88
2021/09/26 07:09:34;;;;;;;15.98;12.18;;;17.20;90.20;;;;;;5074088;28;20195;-88
2021/09/26 07:12:00;;;;;;;14.15;12.38;;;17.20;89.70;;;;;;5074696;28;20631;-88
2021/09/26 07:14:26;;;;;;;15.88;11.75;;;17.20;89.40;;;;;;5074073;28;20179;-87
2021/09/26 07:16:51;;;;;;;16.17;13.18;;;17.30;89.60;;;;;;5075199;28;20541;-87
2021/09/26 07:19:18;;;;;;;19.42;13.55;;;17.30;89.60;;;;;;5073316;28;20199;-88
2021/09/26 07:21:43;;;;;;;21.73;12.85;;;17.40;89.20;;;;;;5073542;28;20659;-88
2021/09/26 07:24:10;;;;;;;15.82;11.43;;;17.40;89.20;;;;;;5073398;28;20207;-88
2021/09/26 07:26:36;;;;;;;13.23;10.27;;;17.50;88.90;;;;;;5075115;28;20235;-88
2021/09/26 07:29:01;;;;;;;14.32;9.90;;;17.60;88.80;;;;;;5074400;28;20195;-88
2021/09/26 07:31:27;;;;;;;10.88;9.45;;;17.60;88.50;;;;;;5073639;28;20186;-88
2021/09/26 07:33:53;;;;;;;15.50;9.40;;;17.70;87.70;;;;;;5073361;28;20175;-88
2021/09/26 07:36:18;;;;;;;12.45;9.70;;;17.80;87.90;;;;;;5074602;28;20184;-88
2021/09/26 07:38:44;;;;;;;13.27;10.00;;;17.80;87.90;;;;;;5074513;28;20198;-88
2021/09/26 07:41:10;;;;;;;10.55;9.13;;;17.80;87.60;;;;;;5074922;28;20177;-88
2021/09/26 07:43:36;;;;;;;12.73;9.60;;;17.90;87.50;;;;;;5077327;28;20199;-88
2021/09/26 07:46:01;;;;;;;12.82;9.80;;;17.90;87.40;;;;;;5077166;28;20225;-88
2021/09/26 07:48:27;;;;;;;15.02;10.35;;;18.00;87.30;;;;;;5077206;28;20199;-87
2021/09/26 07:50:53;;;;;;;11.00;9.55;;;18.00;87.20;;;;;;5077042;28;20539;-88
2021/09/26 07:53:19;;;;;;;16.60;9.02;;;18.10;87.40;;;;;;5077868;28;20179;-88
2021/09/26 07:55:48;;;;;;;10.10;8.50;;;18.20;86.80;;;;;;5076699;28;20596;-88
2021/09/26 07:58:14;;;;;;;13.77;8.55;;;18.30;86.30;;;;;;5076798;28;20215;-88
2021/09/26 08:00:40;;;;;;;9.85;7.03;;;18.30;86.10;;;;;;5076494;28;20191;-88
2021/09/26 08:03:05;;;;;;;10.82;7.57;;;18.40;85.70;;;;;;5076670;28;20316;-88
2021/09/26 08:05:31;;;;;;;10.68;7.22;;;18.50;84.80;;;;;;5077532;28;20274;-88
2021/09/26 08:07:57;;;;;;;7.50;6.72;;;18.60;84.40;;;;;;5076347;28;20191;-88
2021/09/26 08:10:22;;;;;;;11.15;6.20;;;18.70;85.40;;;;;;5076491;28;20702;-88
2021/09/26 08:12:48;;;;;;;9.32;6.90;;;18.80;84.20;;;;;;5076323;28;20175;-88
2021/09/26 08:15:14;;;;;;;9.50;6.97;;;18.80;83.50;;;;;;5077529;28;20246;-88
2021/09/26 08:17:39;;;;;;;10.82;6.97;;;18.90;83.60;;;;;;5075911;28;20191;-88
2021/09/26 08:20:06;;;;;;;16.55;7.43;;;19.00;83.80;;;;;;5075928;28;20179;-88
2021/09/26 08:22:31;;;;;;;7.60;6.78;;;19.10;83.90;;;;;;5077126;28;20210;-88
2021/09/26 08:24:57;;;;;;;12.15;6.57;;;19.20;83.30;;;;;;5076868;28;20226;-88
2021/09/26 08:27:24;;;;;;;7.93;6.22;;;19.20;82.70;;;;;;5077138;28;20255;-88
2021/09/26 08:29:50;;;;;;;9.52;6.90;;;19.30;82.20;;;;;;5077169;28;20175;-88
2021/09/26 08:32:16;;;;;;;9.93;6.20;;;19.40;83.00;;;;;;5075954;28;20195;-88
2021/09/26 08:34:41;;;;;;;8.80;5.63;;;19.50;82.60;;;;;;5075767;28;20176;-88
2021/09/26 08:37:07;;;;;;;7.53;6.20;;;19.50;82.20;;;;;;5075875;28;20175;-88
2021/09/26 08:39:33;;;;;;;8.75;6.03;;;19.60;82.80;;;;;;5075590;28;20191;-88
2021/09/26 08:41:58;;;;;;;8.32;6.38;;;19.60;81.70;;;;;;5075835;28;20668;-88
2021/09/26 08:44:27;;;;;;;7.13;5.88;;;19.60;80.90;;;;;;5076513;28;20198;-88
2021/09/26 08:46:55;;;;;;;11.27;5.60;;;19.70;81.00;;;;;;5075591;28;20640;-88
2021/09/26 08:49:22;;;;;;;7.05;5.15;;;19.80;80.60;;;;;;5075389;28;20610;-88
2021/09/26 08:51:50;;;;;;;11.27;5.15;;;19.90;80.20;;;;;;5074862;28;20548;-88
2021/09/26 08:54:17;;;;;;;7.50;4.88;;;19.90;79.90;;;;;;5074572;28;20215;-88
2021/09/26 08:56:43;;;;;;;6.53;4.70;;;20.00;79.40;;;;;;5075299;28;20175;-88
2021/09/26 08:59:10;;;;;;;10.80;5.35;;;20.00;78.80;;;;;;5076413;28;20226;-88
2021/09/26 09:01:36;;;;;;;6.65;4.82;;;20.00;79.30;;;;;;5076951;28;20532;-88
2021/09/26 09:04:03;;;;;;;10.25;5.55;;;20.10;79.80;;;;;;5076129;28;20223;-88
2021/09/26 09:06:39;;;;;;;6.55;5.22;;;20.20;80.40;;;;;;5074960;28;20559;-88
2021/09/26 09:09:10;;;;;;;6.18;4.93;;;20.30;79.30;;;;;;5075975;28;20561;-88
2021/09/26 09:11:36;;;;;;;7.32;5.50;;;20.50;79.70;;;;;;5075995;28;20159;-88
2021/09/26 09:14:01;;;;;;;6.88;4.90;;;20.50;79.20;;;;;;5074866;28;20175;-88
2021/09/26 09:16:34;;;;;;;8.73;4.10;;;20.60;78.80;;;;;;5075840;28;20176;-88
2021/09/26 09:19:01;;;;;;;4.07;3.78;;;20.70;77.40;;;;;;5075630;28;20191;-88
2021/09/26 09:21:31;;;;;;;7.93;4.20;;;20.70;77.10;;;;;;5074448;28;20187;-88
2021/09/26 09:24:20;;;;;;;8.20;4.00;;;20.80;76.00;;;;;;5074621;28;20557;-88
2021/09/26 09:26:47;;;;;;;5.30;4.28;;;20.90;75.80;;;;;;5074458;28;20525;-88
2021/09/26 09:29:13;;;;;;;8.48;3.58;;;21.00;76.60;;;;;;5075451;28;20187;-88
2021/09/26 09:31:51;;;;;;;4.78;4.10;;;21.20;77.20;;;;;;5074584;28;20236;-88
2021/09/26 09:34:33;;;;;;;7.88;3.63;;;21.30;76.20;;;;;;5074158;28;20171;-88
2021/09/26 09:37:20;;;;;;;9.55;3.83;;;21.40;74.80;;;;;;5074990;28;20229;-88
2021/09/26 09:40:12;;;;;;;4.07;3.67;;;21.40;75.10;;;;;;5074030;28;20168;-88
2021/09/26 09:42:38;;;;;;;5.82;3.65;;;21.50;75.20;;;;;;5073965;28;20203;-88
2021/09/26 09:45:18;;;;;;;4.03;3.05;;;21.60;73.60;;;;;;5074463;28;20245;-88
2021/09/26 09:47:55;;;;;;;3.95;3.55;;;21.70;73.20;;;;;;5073880;28;20622;-88
2021/09/26 09:50:26;;;;;;;5.97;3.53;;;21.70;74.10;;;;;;5073908;28;20172;-88
2021/09/26 09:52:54;;;;;;;4.30;3.30;;;21.80;73.10;;;;;;5073967;28;20706;-88
2021/09/26 09:55:24;;;;;;;5.25;3.33;;;21.80;71.70;;;;;;5073855;28;20187;-88
2021/09/26 09:57:49;;;;;;;4.43;3.38;;;21.80;71.70;;;;;;5074716;28;20195;-88
2021/09/26 10:00:17;;;;;;;6.40;3.75;;;21.90;72.50;;;;;;5073584;28;20215;-88
2021/09/26 10:02:43;;;;;;;4.68;3.35;;;22.00;73.00;;;;;;5074879;28;20321;-88
2021/09/26 10:05:32;;;;;;;7.10;2.67;;;22.10;72.20;;;;;;5073111;28;20206;-88
2021/09/26 10:07:58;;;;;;;6.25;3.30;;;22.20;69.70;;;;;;5073321;28;20196;-88
2021/09/26 10:10:34;;;;;;;5.72;3.13;;;22.30;70.30;;;;;;5073782;28;20172;-88
2021/09/26 10:13:11;;;;;;;4.10;3.25;;;22.40;69.20;;;;;;5073233;28;20174;-88
2021/09/26 10:15:37;;;;;;;3.85;2.83;;;22.50;70.90;;;;;;5074719;28;20190;-88
2021/09/26 10:18:03;;;;;;;5.82;3.08;;;22.60;69.70;;;;;;5073187;28;20222;-88
2021/09/26 10:20:30;;;;;;;3.90;3.08;;;22.60;69.00;;;;;;5073152;28;20675;-88
2021/09/26 10:22:57;;;;;;;3.65;3.35;;;22.50;70.10;;;;;;5074574;28;20175;-88
2021/09/26 10:25:23;;;;;;;4.28;3.17;;;22.60;69.80;;;;;;5074474;28;20195;-88
2021/09/26 10:27:49;;;;;;;5.32;3.10;;;22.60;68.90;;;;;;5073450;28;20190;-88
2021/09/26 10:30:16;;;;;;;6.40;3.55;;;22.70;68.70;;;;;;5074124;28;20170;-88
2021/09/26 10:32:44;;;;;;;3.83;3.30;;;22.80;67.80;;;;;;5072865;28;20186;-88
2021/09/26 10:35:10;;;;;;;3.47;3.08;;;22.80;69.10;;;;;;5072950;28;20179;-88
2021/09/26 10:37:36;;;;;;;7.07;3.92;;;22.70;68.40;;;;;;5072912;28;20202;-88
2021/09/26 10:40:03;;;;;;;3.55;3.20;;;22.70;67.90;;;;;;5072998;28;20180;-88
2021/09/26 10:42:35;;;;;;;5.80;3.53;;;22.70;69.00;;;;;;5073863;28;20228;-88
2021/09/26 10:45:03;;;;;;;4.97;3.38;;;23.00;70.00;;;;;;5073875;28;20215;-88
2021/09/26 10:47:39;;;;;;;6.20;3.10;;;23.00;68.30;;;;;;5073849;28;20246;-88
2021/09/26 10:50:11;;;;;;;3.40;3.05;;;23.10;68.70;;;;;;5072550;28;20265;-88
2021/09/26 10:52:42;;;;;;;4.28;3.60;;;22.90;69.20;;;;;;5072594;28;20651;-88
2021/09/26 10:55:17;;;;;;;9.23;3.58;;;23.10;69.30;;;;;;5072517;28;20171;-88
2021/09/26 10:57:47;;;;;;;6.53;3.55;;;23.20;68.50;;;;;;5072907;28;20191;-88
2021/09/26 11:00:15;;;;;;;3.83;3.35;;;23.30;67.20;;;;;;5072452;28;20564;-88
2021/09/26 11:02:43;;;;;;;3.88;3.03;;;23.30;66.20;;;;;;5073732;28;20171;-88
2021/09/26 11:05:30;;;;;;;10.50;3.42;;;23.40;66.10;;;;;;5072286;28;20272;-88
2021/09/26 11:07:56;;;;;;;3.90;3.47;;;23.40;67.20;;;;;;5073478;28;20671;-88
2021/09/26 11:10:46;;;;;;;3.78;3.33;;;23.50;67.10;;;;;;5073427;28;20171;-88
2021/09/26 11:13:28;;;;;;;4.90;3.15;;;23.50;69.50;;;;;;5072275;28;20258;-88
2021/09/26 11:15:57;;;;;;;4.38;3.40;;;23.40;67.10;;;;;;5072297;28;20711;-88
2021/09/26 11:18:42;;;;;;;7.38;3.40;;;23.40;67.40;;;;;;5072079;28;20195;-88
2021/09/26 11:21:07;;;;;;;3.85;3.30;;;23.20;67.50;;;;;;5072173;28;20263;-88
2021/09/26 11:23:35;;;;;;;6.07;3.47;;;23.20;66.90;;;;;;5072139;28;20262;-88
2021/09/26 11:26:04;;;;;;;4.60;3.08;;;23.20;67.00;;;;;;5073650;28;20273;-88
2021/09/26 11:28:36;;;;;;;7.28;3.50;;;23.30;67.90;;;;;;5072276;28;20577;-88
2021/09/26 11:31:09;;;;;;;6.05;3.40;;;23.30;66.50;;;;;;5072112;28;20780;-88
2021/09/26 11:33:58;;;;;;;5.63;3.47;;;23.70;67.50;;;;;;5072415;28;20164;-88
2021/09/26 11:36:27;;;;;;;3.80;3.42;;;23.80;66.00;;;;;;5072058;28;20163;-88
2021/09/26 11:38:54;;;;;;;6.07;3.65;;;23.80;65.50;;;;;;5072398;28;20631;-88
2021/09/26 11:41:38;;;;;;;6.18;3.45;;;23.80;65.60;;;;;;5073205;28;20644;-88
2021/09/26 11:44:09;;;;;;;3.67;3.35;;;24.00;64.70;;;;;;5071810;28;20206;-89
2021/09/26 11:46:35;;;;;;;4.88;3.70;;;23.90;64.70;;;;;;5071936;28;20250;-89
2021/09/26 11:49:05;;;;;;;4.03;3.25;;;24.10;64.90;;;;;;5071678;28;20201;-89
2021/09/26 11:51:31;;;;;;;4.45;3.00;;;24.20;64.10;;;;;;5071878;28;20210;-89
2021/09/26 11:53:58;;;;;;;3.20;2.90;;;24.10;63.40;;;;;;5073310;28;20164;-88
2021/09/26 11:56:32;;;;;;;5.50;3.42;;;24.20;64.30;;;;;;5073022;28;20538;-88
2021/09/26 11:59:01;;;;;;;3.58;3.00;;;24.30;63.50;;;;;;5071516;28;20264;-88
2021/09/26 12:01:35;;;;;;;4.63;3.08;;;24.20;61.70;;;;;;5072961;28;20178;-89
2021/09/26 12:04:08;;;;;;;6.15;3.33;;;24.20;61.00;;;;;;5071635;28;20163;-88
2021/09/26 12:06:34;;;;;;;4.40;3.10;;;24.20;60.30;;;;;;5073159;28;20204;-88
2021/09/26 12:09:00;;;;;;;4.78;3.65;;;24.10;61.20;;;;;;5072819;28;20221;-88
2021/09/26 12:11:26;;;;;;;3.50;3.20;;;24.20;61.20;;;;;;5072800;28;20599;-88
2021/09/26 12:13:54;;;;;;;4.90;3.38;;;24.10;60.70;;;;;;5072998;28;20269;-89
2021/09/26 12:16:21;;;;;;;5.03;3.55;;;24.10;61.70;;;;;;5071556;28;20182;-89
2021/09/26 12:18:59;;;;;;;3.97;3.42;;;23.90;62.50;;;;;;5071408;28;20568;-89
2021/09/26 12:21:29;;;;;;;3.53;2.88;;;23.90;63.00;;;;;;5072780;28;20147;-89
2021/09/26 12:24:06;;;;;;;3.90;3.50;;;23.80;62.90;;;;;;5071540;28;20167;-88
2021/09/26 12:26:36;;;;;;;3.70;3.30;;;23.80;63.40;;;;;;5072055;28;20306;-88
2021/09/26 12:29:25;;;;;;;4.40;3.67;;;23.80;63.50;;;;;;5076298;28;20266;-88
2021/09/26 12:31:54;;;;;;;6.32;3.22;;;23.80;62.90;;;;;;5076206;28;20628;-89
2021/09/26 12:34:26;;;;;;;4.57;3.10;;;24.00;64.60;;;;;;5074958;28;20183;-89
2021/09/26 12:36:52;;;;;;;7.45;4.00;;;23.90;63.40;;;;;;5074924;28;20179;-89
2021/09/26 12:39:51;;;;;;;4.80;3.25;;;23.80;62.90;;;;;;5076112;28;20199;-89
2021/09/26 12:42:27;;;;;;;5.30;3.20;;;24.00;64.20;;;;;;5074860;28;20266;-89
2021/09/26 12:44:54;;;;;;;5.07;3.40;;;24.20;61.60;;;;;;5074793;28;20195;-89
2021/09/26 12:47:30;;;;;;;5.13;3.50;;;24.10;62.30;;;;;;5076038;28;20180;-90
2021/09/26 12:49:58;;;;;;;4.13;3.20;;;24.40;62.20;;;;;;5074721;28;20620;-89